Capitol Logistics 506




RJCC
New Chitose Airport
Sapporo, JP
RJAA
Tokyo-Narita International Airport
Tokyo, JP

Activity Log

Date Flight Route Aircraft Duration
No Flights Yet

Route Details

Aircraft Information
Group: Trans-Pacific Ops
Types: B744,B763,MD11
Route Data
Demand: V
Distance: 426nm
Duration: 1h 44m
Recm'd Route: YOSAN1 BUTOS Y302 JUGEM Y30 SWAMP SWAMPN
Origin Wx: RJCC 272130Z 14008KT 1600 R19R/1200VP2000U R19L/2000N -DZ BR BKN001 13/13 Q0996 RMK 7ST001 A2942
Dest. Wx: RJAA 272130Z VRB01KT 9999 FEW015 BKN090 18/17 Q1000 NOSIG RMK 1CU015 6AC090 A2953
Notes:

Financial History
Total Freight: 0lbs
Average Load: 0lbs/flt
Fuel Used: 0lbs
Avg. Fuel Used: 0lbs/flt
Fuel Expense: $0
Avg. Fuel Expense: $0
Avg. Fuel Cost: $0/lbs
Total Gross Income: $0
Pilot Pay: $0
Total Expenses: $0
Total Revenue: $0
Average Revenue: $0